Terminal Aerodrome Forecast
Issued by NWS Bismarck, ND

Home | Current Version | Previous Version | Graphics & Text | Print | Product List | Glossary On
Versions: 1 2 3 4 5 6 7 8 9 10 11 12 13 14 15 16 17 18 19
000
FTUS43 KBIS 071700
TAFBIS
TAF
KBIS 071737Z 0718/0818 32012G20KT P6SM -SHRA VCTS BKN060CB OVC120
     FM072000 33018G28KT P6SM VCSH SCT060 BKN120
     FM080200 31008KT P6SM SCT080=

USA.gov is the U.S. government's official web portal to all federal, state and local government web resources and services.